Terminal Aerodrome Forecast
Issued by NWS

Home | Current Version | Previous Version | Text Only | Print | Product List | Glossary On
Versions: 1 2 3 4 5 6 7 8 9 10 11 12 13 14
680
FTPA31 PHFO 281720
TAFHOG
TAF
PHOG 281720Z 2818/2918 04010KT P6SM VCSH SCT030 BKN050
     FM282000 05017G23KT P6SM VCSH SCT030 BKN050
     FM290500 05012KT P6SM FEW030 SCT050
     FM291000 05009KT P6SM FEW030 SCT050=

USA.gov is the U.S. government's official web portal to all federal, state and local government web resources and services.